createdAt,value
2023-03-23T15:59:10.828Z,1.77
2023-03-23T16:01:40.070Z,1.42
2023-03-23T16:04:10.846Z,2.03
2023-03-23T16:06:38.254Z,1.40
2023-03-23T16:09:07.012Z,2.85
2023-03-23T16:11:34.423Z,1.38
2023-03-23T16:14:01.760Z,1.73
2023-03-23T16:16:32.538Z,1.73
2023-03-23T16:18:59.078Z,1.52
2023-03-23T16:21:26.107Z,1.40
2023-03-23T16:23:52.722Z,2.10
2023-03-23T16:26:19.295Z,1.20
2023-03-23T16:28:46.108Z,1.67
2023-03-23T16:31:12.677Z,1.50
2023-03-23T16:33:39.375Z,1.58
2023-03-23T16:36:06.288Z,1.80
2023-03-23T16:38:32.802Z,1.80
2023-03-23T16:41:16.201Z,1.42
2023-03-23T16:43:42.725Z,1.80
2023-03-23T16:46:12.341Z,1.38
2023-03-23T16:48:38.924Z,1.90
2023-03-23T16:51:05.567Z,1.50
2023-03-23T16:53:32.611Z,1.75
2023-03-23T16:55:59.123Z,1.33
2023-03-23T16:58:25.902Z,1.45
2023-03-23T17:00:53.489Z,1.50
2023-03-23T17:03:21.562Z,1.65
2023-03-23T17:05:50.340Z,1.63
2023-03-23T17:08:18.000Z,1.70
2023-03-23T17:10:45.702Z,1.50
2023-03-23T17:13:12.636Z,1.33
2023-03-23T17:15:43.644Z,2.05
2023-03-23T17:18:11.748Z,1.70
2023-03-23T17:20:38.586Z,1.55
2023-03-23T17:23:05.893Z,1.52
2023-03-23T17:25:32.476Z,2.00
2023-03-23T17:28:05.106Z,1.40
2023-03-23T17:30:33.011Z,1.58
2023-03-23T17:32:59.600Z,1.55
2023-03-23T17:35:26.244Z,1.45
2023-03-23T17:37:52.706Z,1.83
2023-03-23T17:40:19.234Z,1.70
2023-03-23T17:42:45.724Z,1.73
2023-03-23T17:45:12.518Z,2.00
2023-03-23T17:47:39.210Z,2.00
2023-03-23T17:50:11.238Z,1.52
2023-03-23T17:52:39.255Z,2.10
2023-03-23T17:55:06.287Z,1.40
2023-03-23T17:57:32.879Z,1.30
2023-03-23T17:59:59.354Z,1.58
2023-03-23T18:02:26.062Z,1.48
2023-03-23T18:04:52.683Z,1.98
2023-03-23T18:07:23.424Z,1.35
2023-03-23T18:09:50.806Z,1.40
2023-03-23T18:12:18.230Z,1.67
2023-03-23T18:14:44.805Z,1.85
2023-03-23T18:17:11.303Z,1.67
2023-03-23T18:19:38.004Z,1.63
2023-03-23T18:22:04.509Z,1.38
2023-03-23T18:24:31.050Z,1.50
2023-03-23T18:26:57.592Z,1.67
2023-03-23T18:29:24.091Z,1.65
2023-03-23T18:31:50.650Z,1.70
2023-03-23T18:34:17.327Z,2.00
2023-03-23T18:36:43.829Z,1.90
2023-03-23T18:39:12.027Z,1.67
2023-03-23T18:41:38.775Z,1.77
2023-03-23T18:44:06.104Z,1.95
2023-03-23T18:46:32.718Z,1.67
2023-03-23T18:48:59.192Z,1.67
2023-03-23T18:51:26.183Z,1.73
2023-03-23T18:53:52.819Z,1.80
2023-03-23T18:56:19.396Z,1.85
2023-03-23T18:58:46.382Z,1.85
2023-03-23T19:01:16.620Z,1.63
2023-03-23T19:03:44.642Z,1.77
2023-03-23T19:06:23.534Z,2.10
2023-03-23T19:08:52.167Z,1.60
2023-03-23T19:11:19.435Z,2.20
2023-03-23T19:13:58.472Z,1.95
2023-03-23T19:16:29.175Z,1.92
2023-03-23T19:18:55.798Z,1.92
2023-03-23T19:21:25.699Z,1.80
2023-03-23T19:23:54.990Z,1.45
2023-03-23T19:26:29.947Z,1.70
2023-03-23T19:31:26.151Z,1.85
2023-03-23T19:33:53.132Z,2.38
2023-03-23T19:36:21.319Z,2.10
2023-03-23T19:38:49.084Z,1.65
2023-03-23T19:41:18.295Z,1.85
2023-03-23T19:43:45.733Z,1.70
2023-03-23T19:46:12.641Z,2.00
2023-03-23T19:48:39.968Z,1.40
2023-03-23T19:51:07.443Z,1.40
2023-03-23T19:53:34.633Z,1.70
2023-03-23T19:56:03.541Z,1.60
2023-03-23T19:58:31.471Z,1.65
2023-03-23T20:01:00.704Z,1.55
2023-03-23T20:03:27.208Z,1.70
2023-03-23T20:06:01.286Z,1.50
2023-03-23T20:08:28.503Z,1.70
2023-03-23T20:11:05.553Z,1.60
2023-03-23T20:13:32.834Z,1.50
2023-03-23T20:16:00.805Z,1.60
2023-03-23T20:18:29.804Z,1.95
2023-03-23T20:21:11.167Z,1.30
2023-03-23T20:23:38.968Z,1.70
2023-03-23T20:26:11.693Z,1.60
2023-03-23T20:28:39.133Z,1.50
2023-03-23T20:31:18.770Z,1.95
2023-03-23T20:34:00.498Z,1.50
2023-03-23T20:36:40.286Z,1.75
2023-03-23T20:39:10.484Z,1.63
2023-03-23T20:41:38.762Z,2.05
2023-03-23T20:44:06.997Z,1.88
2023-03-23T20:46:34.636Z,1.70
2023-03-23T20:49:01.939Z,2.00
2023-03-23T20:51:28.482Z,2.33
2023-03-23T20:53:55.604Z,1.90
2023-03-23T20:56:22.442Z,1.95
2023-03-23T20:58:49.004Z,1.83
2023-03-23T21:01:15.579Z,1.55
2023-03-23T21:03:43.413Z,1.60
2023-03-23T21:06:10.720Z,1.60
2023-03-23T21:08:39.709Z,1.98
2023-03-23T21:11:09.117Z,1.90
2023-03-23T21:13:36.698Z,2.08
2023-03-23T21:16:04.289Z,2.00
2023-03-23T21:18:31.725Z,1.90
2023-03-23T21:21:00.222Z,1.48
2023-03-23T21:23:29.849Z,1.75
2023-03-23T21:26:05.959Z,1.85
2023-03-23T21:28:32.448Z,2.70
2023-03-23T21:31:04.413Z,1.85
2023-03-23T21:33:31.038Z,2.00
2023-03-23T21:35:58.095Z,1.70
2023-03-23T21:38:27.950Z,1.80
2023-03-23T21:40:56.924Z,2.50
2023-03-23T21:43:27.121Z,1.67
2023-03-23T21:45:57.200Z,2.05
2023-03-23T21:48:25.106Z,2.00
2023-03-23T21:50:52.183Z,1.80
2023-03-23T21:53:19.286Z,2.17
2023-03-23T21:55:51.204Z,1.95
2023-03-23T21:58:23.649Z,1.77
2023-03-23T22:00:54.065Z,2.30
2023-03-23T22:03:25.185Z,2.17
2023-03-23T22:05:54.606Z,2.05
2023-03-23T22:08:22.375Z,2.60
2023-03-23T22:11:01.208Z,2.25
2023-03-23T22:13:30.752Z,1.83
2023-03-23T22:15:59.421Z,1.95
2023-03-23T22:18:26.436Z,2.17
2023-03-23T22:20:53.340Z,2.30
2023-03-23T22:23:20.199Z,2.17
2023-03-23T22:25:47.105Z,2.15
2023-03-23T22:28:13.671Z,2.05
2023-03-23T22:30:40.220Z,2.10
2023-03-23T22:33:07.029Z,3.08
2023-03-23T22:35:33.855Z,2.30
2023-03-23T22:38:03.105Z,2.05
2023-03-23T22:40:31.039Z,2.25
2023-03-23T22:42:58.156Z,2.30
2023-03-23T22:45:26.116Z,2.40
2023-03-23T22:47:52.946Z,2.28
2023-03-23T22:50:21.511Z,2.30
2023-03-23T22:52:48.484Z,2.35
2023-03-23T22:55:15.730Z,2.58
2023-03-23T22:57:42.302Z,2.20
2023-03-23T23:00:14.411Z,2.47
2023-03-23T23:02:42.557Z,2.55
2023-03-23T23:05:10.867Z,2.63
2023-03-23T23:07:38.287Z,2.60
2023-03-23T23:10:05.886Z,2.55
2023-03-23T23:12:35.115Z,2.90
2023-03-23T23:15:05.761Z,2.70
2023-03-23T23:17:34.514Z,3.47
2023-03-23T23:20:01.424Z,2.78
2023-03-23T23:22:28.015Z,3.40
2023-03-23T23:24:54.593Z,3.17
2023-03-23T23:27:21.350Z,3.35
2023-03-23T23:29:47.975Z,3.40
2023-03-23T23:32:14.826Z,3.25
2023-03-23T23:34:41.452Z,3.22
2023-03-23T23:37:09.138Z,3.40
2023-03-23T23:39:38.285Z,2.55
2023-03-23T23:42:05.748Z,2.83
2023-03-23T23:44:32.970Z,2.78
2023-03-23T23:46:59.532Z,3.08
2023-03-23T23:49:28.664Z,2.88
2023-03-23T23:51:56.489Z,2.53
2023-03-23T23:54:29.516Z,3.20
2023-03-23T23:57:01.133Z,3.00
2023-03-23T23:59:28.917Z,2.42
